Terminal Aerodrome Forecast
Issued by NWS

Home | Current Version | Previous Version | Text Only | Print | Product List | Glossary On
Versions: 1 2 3 4 5 6 7 8 9 10 11 12 13
000
FTUS45 KPSR 300520
TAFIWA
TAF
KIWA 300520Z 3006/3106 13007KT P6SM FEW200
     FM302000 23013G20KT P6SM FEW200
     FM310000 25018G28KT P6SM FEW250
      AMD LTD TO CLD VIS AND WIND TIL 301300=

USA.gov is the U.S. government's official web portal to all federal, state and local government web resources and services.